createdAt,value
2022-11-27T00:00:56.369Z,97758.91
2022-11-27T00:01:57.891Z,97756.50
2022-11-27T00:02:59.545Z,97760.22
2022-11-27T00:04:01.332Z,97751.72
2022-11-27T00:05:02.926Z,97760.50
2022-11-27T00:06:04.617Z,97754.91
2022-11-27T00:07:06.116Z,97760.22
2022-11-27T00:08:07.695Z,97758.63
2022-11-27T00:09:13.579Z,97761.34
2022-11-27T00:10:15.131Z,97758.53
2022-11-27T00:11:20.100Z,97763.09
2022-11-27T00:12:21.693Z,97762.63
2022-11-27T00:13:23.578Z,97759.19
2022-11-27T00:14:25.135Z,97763.69
2022-11-27T00:15:26.763Z,97767.88
2022-11-27T00:16:28.965Z,97775.25
2022-11-27T00:17:30.948Z,97771.78
2022-11-27T00:18:33.362Z,97771.47
2022-11-27T00:19:34.935Z,97775.91
2022-11-27T00:20:36.801Z,97783.50
2022-11-27T00:21:38.862Z,97773.97
2022-11-27T00:22:40.394Z,97774.72
2022-11-27T00:23:42.346Z,97767.56
2022-11-27T00:24:44.437Z,97770.72
2022-11-27T00:25:52.445Z,97769.63
2022-11-27T00:26:54.048Z,97769.69
2022-11-27T00:27:55.591Z,97765.47
2022-11-27T00:28:57.770Z,97766.59
2022-11-27T00:29:59.277Z,97768.16
2022-11-27T00:31:12.624Z,97763.41
2022-11-27T00:32:14.213Z,97766.31
2022-11-27T00:33:15.709Z,97762.63
2022-11-27T00:34:17.271Z,97765.03
2022-11-27T00:35:18.931Z,97756.56
2022-11-27T00:36:20.582Z,97758.72
2022-11-27T00:37:22.159Z,97752.88
2022-11-27T00:38:23.912Z,97750.75
2022-11-27T00:39:25.496Z,97759.22
2022-11-27T00:40:27.038Z,97753.41
2022-11-27T00:41:30.385Z,97753.97
2022-11-27T00:42:32.058Z,97765.06
2022-11-27T00:43:43.697Z,97756.06
2022-11-27T00:44:46.336Z,97753.38
2022-11-27T00:45:50.952Z,97743.31
2022-11-27T00:46:52.563Z,97750.78
2022-11-27T00:47:54.139Z,97750.81
2022-11-27T00:48:56.944Z,97750.31
2022-11-27T00:49:58.858Z,97750.38
2022-11-27T00:51:01.828Z,97746.44
2022-11-27T00:52:03.701Z,97755.19
2022-11-27T00:53:05.262Z,97750.72
2022-11-27T00:54:07.555Z,97749.63
2022-11-27T00:55:09.335Z,97750.19
2022-11-27T00:56:16.629Z,97745.69
2022-11-27T00:57:18.166Z,97749.94
2022-11-27T00:58:19.784Z,97749.63
2022-11-27T00:59:21.311Z,97747.78
2022-11-27T01:00:23.374Z,97756.28
2022-11-27T01:01:34.989Z,97754.66
2022-11-27T01:02:36.610Z,97752.00
2022-11-27T01:03:38.139Z,97751.50
2022-11-27T01:04:40.015Z,97756.25
2022-11-27T01:05:41.736Z,97746.69
2022-11-27T01:06:44.439Z,97745.63
2022-11-27T01:07:46.098Z,97755.16
2022-11-27T01:08:48.274Z,97744.00
2022-11-27T01:09:49.789Z,97743.47
2022-11-27T01:10:56.386Z,97738.41
2022-11-27T01:11:58.034Z,97742.38
2022-11-27T01:12:59.567Z,97740.81
2022-11-27T01:14:04.907Z,97749.81
2022-11-27T01:15:06.983Z,97746.09
2022-11-27T01:16:17.328Z,97739.22
2022-11-27T01:17:18.956Z,97742.97
2022-11-27T01:18:20.489Z,97740.59
2022-11-27T01:19:22.055Z,97744.56
2022-11-27T01:20:23.621Z,97739.25
2022-11-27T01:21:28.185Z,97742.19
2022-11-27T01:22:29.727Z,97740.34
2022-11-27T01:23:31.480Z,97743.56
2022-11-27T01:24:33.014Z,97737.19
2022-11-27T01:25:36.276Z,97730.81
2022-11-27T01:26:37.810Z,97738.78
2022-11-27T01:27:39.376Z,97738.22
2022-11-27T01:28:41.438Z,97736.38
2022-11-27T01:29:42.982Z,97735.59
2022-11-27T01:30:44.569Z,97735.56
2022-11-27T01:31:46.295Z,97739.31
2022-11-27T01:32:47.989Z,97741.97
2022-11-27T01:33:54.004Z,97728.44
2022-11-27T01:34:55.578Z,97736.13
2022-11-27T01:35:58.883Z,97738.22
2022-11-27T01:37:00.458Z,97735.88
2022-11-27T01:38:02.076Z,97741.97
2022-11-27T01:39:04.200Z,97735.59
2022-11-27T01:40:06.727Z,97737.19
2022-11-27T01:41:15.510Z,97743.28
2022-11-27T01:42:17.022Z,97741.97
2022-11-27T01:43:56.254Z,97740.88
2022-11-27T01:44:57.808Z,97737.97
2022-11-27T01:45:59.523Z,97748.31
2022-11-27T01:47:04.233Z,97740.63
2022-11-27T01:48:05.913Z,97739.56
2022-11-27T01:49:10.365Z,97736.88
2022-11-27T01:50:19.029Z,97739.28
2022-11-27T01:51:23.014Z,97731.81
2022-11-27T01:52:32.941Z,97733.41
2022-11-27T01:53:34.779Z,97736.56
2022-11-27T01:54:51.658Z,97734.69
2022-11-27T01:55:58.773Z,97740.78
2022-11-27T01:57:04.640Z,97739.97
2022-11-27T01:58:11.329Z,97734.91
2022-11-27T01:59:13.410Z,97737.03
2022-11-27T02:00:17.710Z,97734.09
2022-11-27T02:01:19.318Z,97727.97
2022-11-27T02:02:21.061Z,97734.88
2022-11-27T02:03:23.301Z,97728.78
2022-11-27T02:04:24.929Z,97727.97
2022-11-27T02:05:28.695Z,97727.44
2022-11-27T02:06:30.315Z,97727.97
2022-11-27T02:07:32.012Z,97730.13
2022-11-27T02:08:33.586Z,97723.75
2022-11-27T02:09:35.494Z,97730.13
2022-11-27T02:10:43.011Z,97726.44
2022-11-27T02:12:25.301Z,97727.78
2022-11-27T02:13:41.042Z,97730.72
2022-11-27T02:14:50.427Z,97733.94
2022-11-27T02:16:08.942Z,97736.06
2022-11-27T02:17:39.445Z,97728.69
2022-11-27T02:18:52.911Z,97725.25
2022-11-27T02:20:19.132Z,97727.38
2022-11-27T02:21:47.104Z,97727.63
2022-11-27T02:23:09.966Z,97731.88
2022-11-27T02:24:31.905Z,97734.00
2022-11-27T02:25:48.596Z,97737.47
2022-11-27T02:27:27.134Z,97737.16
2022-11-27T02:28:35.290Z,97741.66
2022-11-27T02:29:36.965Z,97736.63
2022-11-27T02:30:46.295Z,97731.81
2022-11-27T02:32:20.122Z,97732.88
2022-11-27T02:33:22.167Z,97732.88
2022-11-27T02:34:23.997Z,97733.41
2022-11-27T02:35:37.682Z,97731.78
2022-11-27T02:36:43.787Z,97732.81
2022-11-27T02:37:50.478Z,97731.16
2022-11-27T02:38:59.686Z,97739.94
2022-11-27T02:40:07.885Z,97734.97
2022-11-27T02:41:42.203Z,97738.16
2022-11-27T02:42:50.032Z,97741.13
2022-11-27T02:43:53.681Z,97735.53
2022-11-27T02:45:07.825Z,97735.03
2022-11-27T02:46:10.976Z,97735.56
2022-11-27T02:47:14.478Z,97735.06
2022-11-27T02:48:20.362Z,97734.00
2022-11-27T02:49:22.451Z,97729.75
2022-11-27T02:50:26.273Z,97727.91
2022-11-27T02:51:37.344Z,97724.44
2022-11-27T02:52:39.892Z,97722.59
2022-11-27T02:53:57.573Z,97723.91
2022-11-27T02:55:03.390Z,97724.44
2022-11-27T02:56:12.735Z,97729.72
2022-11-27T02:57:16.067Z,97731.81
2022-11-27T02:58:22.242Z,97738.19
2022-11-27T02:59:26.692Z,97739.78
2022-11-27T03:00:30.135Z,97738.75
2022-11-27T03:01:38.794Z,97734.81
2022-11-27T03:02:46.486Z,97740.63
2022-11-27T03:03:55.654Z,97737.72
2022-11-27T03:05:00.670Z,97734.53
2022-11-27T03:06:08.163Z,97747.78
2022-11-27T03:07:16.936Z,97748.81
2022-11-27T03:08:30.994Z,97748.78
2022-11-27T03:09:38.687Z,97758.31
2022-11-27T03:10:57.070Z,97759.34
2022-11-27T03:11:59.209Z,97756.91
2022-11-27T03:13:02.555Z,97752.91
2022-11-27T03:14:08.320Z,97753.50
2022-11-27T03:15:10.495Z,97749.03
2022-11-27T03:16:15.128Z,97760.47
2022-11-27T03:17:41.504Z,97754.09
2022-11-27T03:19:03.486Z,97748.31
2022-11-27T03:20:27.882Z,97753.38
2022-11-27T03:21:42.274Z,97757.59
2022-11-27T03:22:44.062Z,97757.88
2022-11-27T03:23:45.723Z,97762.09
2022-11-27T03:24:49.883Z,97761.81
2022-11-27T03:25:51.775Z,97761.56
2022-11-27T03:26:53.333Z,97770.56
2022-11-27T03:28:01.170Z,97764.72
2022-11-27T03:29:06.219Z,97757.31
2022-11-27T03:30:09.729Z,97754.44
2022-11-27T03:31:12.104Z,97755.50
2022-11-27T03:32:14.687Z,97756.53
2022-11-27T03:33:17.558Z,97754.69
2022-11-27T03:34:19.225Z,97754.16
2022-11-27T03:35:24.643Z,97752.03
2022-11-27T03:36:26.265Z,97748.84
2022-11-27T03:37:28.305Z,97754.16
2022-11-27T03:38:29.858Z,97758.34
2022-11-27T03:39:32.117Z,97756.22
2022-11-27T03:41:00.094Z,97749.84
2022-11-27T03:42:13.525Z,97759.38
2022-11-27T03:43:23.128Z,97758.59
2022-11-27T03:44:47.515Z,97760.97
2022-11-27T03:45:56.511Z,97766.00
2022-11-27T03:47:16.785Z,97766.53
2022-11-27T03:48:27.276Z,97760.97
2022-11-27T03:49:34.011Z,97760.19
2022-11-27T03:50:56.818Z,97751.13
2022-11-27T03:52:55.688Z,97762.03
2022-11-27T03:54:15.608Z,97752.19
2022-11-27T03:55:29.297Z,97757.75
2022-11-27T03:56:59.772Z,97757.19
2022-11-27T03:58:06.274Z,97751.91
2022-11-27T03:59:17.971Z,97751.66
2022-11-27T04:00:19.814Z,97750.06
2022-11-27T04:01:24.753Z,97747.13
2022-11-27T04:02:38.435Z,97745.53
2022-11-27T04:03:40.174Z,97747.69
2022-11-27T04:04:42.212Z,97750.06
2022-11-27T04:05:43.925Z,97751.66
2022-11-27T04:06:45.583Z,97753.25
2022-11-27T04:07:47.390Z,97750.59
2022-11-27T04:08:49.641Z,97756.97
2022-11-27T04:09:51.209Z,97753.78
2022-11-27T04:10:53.028Z,97746.63
2022-11-27T04:11:54.616Z,97745.06
2022-11-27T04:12:56.639Z,97744.25
2022-11-27T04:13:58.390Z,97746.63
2022-11-27T04:15:00.414Z,97747.94
2022-11-27T04:16:02.257Z,97748.97
2022-11-27T04:17:03.962Z,97750.03
2022-11-27T04:18:05.828Z,97757.97
2022-11-27T04:19:08.187Z,97752.69
2022-11-27T04:20:12.347Z,97760.44
2022-11-27T04:21:13.969Z,97757.28
2022-11-27T04:22:15.517Z,97759.94
2022-11-27T04:23:17.034Z,97755.19
2022-11-27T04:24:18.575Z,97750.44
2022-11-27T04:25:20.110Z,97753.63
2022-11-27T04:26:21.719Z,97752.03
2022-11-27T04:27:23.353Z,97753.09
2022-11-27T04:28:24.906Z,97758.94
2022-11-27T04:29:26.457Z,97758.94
2022-11-27T04:30:28.065Z,97763.19
2022-11-27T04:31:29.646Z,97761.03
2022-11-27T04:32:31.270Z,97757.34
2022-11-27T04:33:32.987Z,97761.59
2022-11-27T04:34:34.725Z,97755.75
2022-11-27T04:35:36.331Z,97760.00
2022-11-27T04:36:39.613Z,97757.88
2022-11-27T04:37:41.429Z,97759.19
2022-11-27T04:38:43.038Z,97767.41
2022-11-27T04:39:44.555Z,97761.59
2022-11-27T04:40:46.304Z,97761.06
2022-11-27T04:41:48.065Z,97768.50
2022-11-27T04:42:50.075Z,97771.94
2022-11-27T04:43:51.604Z,97764.78
2022-11-27T04:44:53.202Z,97771.66
2022-11-27T04:45:54.819Z,97762.13
2022-11-27T04:46:56.499Z,97764.78
2022-11-27T04:47:58.170Z,97774.28
2022-11-27T04:48:59.691Z,97770.56
2022-11-27T04:50:01.504Z,97771.13
2022-11-27T04:51:03.130Z,97771.13
2022-11-27T04:52:04.859Z,97778.31
2022-11-27T04:53:06.459Z,97773.25
2022-11-27T04:54:08.016Z,97774.84
2022-11-27T04:55:10.190Z,97772.47
2022-11-27T04:56:11.731Z,97776.16
2022-11-27T04:57:15.259Z,97776.69
2022-11-27T04:58:16.897Z,97781.75
2022-11-27T04:59:18.548Z,97782.78
2022-11-27T05:00:20.816Z,97791.00
2022-11-27T05:01:22.522Z,97796.03
2022-11-27T05:02:24.224Z,97796.03
2022-11-27T05:03:25.768Z,97788.59
2022-11-27T05:04:27.343Z,97786.47
2022-11-27T05:05:28.882Z,97790.19
2022-11-27T05:06:30.412Z,97791.25
2022-11-27T05:07:32.034Z,97785.94
2022-11-27T05:08:34.207Z,97788.06
2022-11-27T05:09:35.859Z,97790.19
2022-11-27T05:10:37.486Z,97783.81
2022-11-27T05:11:39.308Z,97791.75
2022-11-27T05:12:40.838Z,97791.22
2022-11-27T05:13:42.671Z,97789.38
2022-11-27T05:14:44.193Z,97783.81
2022-11-27T05:15:45.785Z,97785.41
2022-11-27T05:16:51.638Z,97788.84
2022-11-27T05:17:53.380Z,97789.63
2022-11-27T05:18:55.000Z,97788.50
2022-11-27T05:19:56.519Z,97791.16
2022-11-27T05:20:58.228Z,97791.06
2022-11-27T05:21:59.769Z,97789.72
2022-11-27T05:23:01.295Z,97783.09
2022-11-27T05:24:02.915Z,97783.69
2022-11-27T05:25:04.727Z,97780.03
2022-11-27T05:26:06.296Z,97780.84
2022-11-27T05:27:07.910Z,97782.72
2022-11-27T05:28:09.445Z,97785.34
2022-11-27T05:29:12.104Z,97786.41
2022-11-27T05:30:13.671Z,97786.41
2022-11-27T05:31:15.330Z,97792.28
2022-11-27T05:32:17.028Z,97787.47
2022-11-27T05:33:19.339Z,97785.34
2022-11-27T05:34:21.428Z,97780.56
2022-11-27T05:35:22.951Z,97791.75
2022-11-27T05:36:24.893Z,97783.25
2022-11-27T05:37:26.482Z,97786.69
2022-11-27T05:38:28.084Z,97783.00
2022-11-27T05:39:29.665Z,97779.03
2022-11-27T05:40:31.250Z,97783.00
2022-11-27T05:41:33.653Z,97790.69
2022-11-27T05:42:35.238Z,97784.88
2022-11-27T05:43:37.135Z,97782.53
2022-11-27T05:44:39.142Z,97781.19
2022-11-27T05:45:40.894Z,97779.88
2022-11-27T05:46:43.846Z,97781.75
2022-11-27T05:47:45.486Z,97782.56
2022-11-27T05:48:47.302Z,97786.00
2022-11-27T05:49:48.907Z,97781.75
2022-11-27T05:50:50.467Z,97784.41
2022-11-27T05:51:52.149Z,97784.13
2022-11-27T05:52:53.712Z,97779.63
2022-11-27T05:53:55.234Z,97784.41
2022-11-27T05:54:56.758Z,97790.22
2022-11-27T05:56:04.003Z,97789.41
2022-11-27T05:57:05.522Z,97795.00
2022-11-27T05:58:07.047Z,97802.97
2022-11-27T05:59:10.175Z,97797.13
2022-11-27T06:00:12.807Z,97793.69
2022-11-27T06:01:16.445Z,97791.81
2022-11-27T06:02:22.625Z,97790.78
2022-11-27T06:03:25.900Z,97791.31
2022-11-27T06:04:27.602Z,97799.78
2022-11-27T06:05:29.146Z,97799.28
2022-11-27T06:06:30.933Z,97804.84
2022-11-27T06:07:32.951Z,97798.97
2022-11-27T06:08:37.116Z,97808.53
2022-11-27T06:09:38.681Z,97812.53
2022-11-27T06:10:40.683Z,97807.22
2022-11-27T06:11:43.190Z,97806.69
2022-11-27T06:12:44.763Z,97800.81
2022-11-27T06:13:47.270Z,97802.16
2022-11-27T06:14:48.766Z,97808.00
2022-11-27T06:15:50.295Z,97811.97
2022-11-27T06:16:51.841Z,97812.53
2022-11-27T06:17:53.425Z,97808.53
2022-11-27T06:18:56.044Z,97808.53
2022-11-27T06:19:57.660Z,97809.06
2022-11-27T06:20:59.278Z,97810.38
2022-11-27T06:22:00.798Z,97806.66
2022-11-27T06:23:02.313Z,97806.09
2022-11-27T06:24:04.157Z,97808.25
2022-11-27T06:25:06.333Z,97805.03
2022-11-27T06:26:17.262Z,97816.75
2022-11-27T06:27:18.864Z,97806.88
2022-11-27T06:28:20.449Z,97810.34
2022-11-27T06:29:22.122Z,97809.81
2022-11-27T06:30:23.659Z,97802.38
2022-11-27T06:31:28.675Z,97816.19
2022-11-27T06:32:30.512Z,97814.56
2022-11-27T06:33:32.063Z,97816.72
2022-11-27T06:34:33.656Z,97815.13
2022-11-27T06:35:35.186Z,97817.25
2022-11-27T06:36:38.238Z,97809.84
2022-11-27T06:37:39.830Z,97814.09
2022-11-27T06:38:41.512Z,97816.47
2022-11-27T06:39:43.172Z,97814.34
2022-11-27T06:40:44.662Z,97804.56
2022-11-27T06:41:46.261Z,97811.72
2022-11-27T06:42:47.826Z,97809.84
2022-11-27T06:43:49.654Z,97804.53
2022-11-27T06:44:51.184Z,97808.47
2022-11-27T06:45:57.500Z,97803.44
2022-11-27T06:46:59.098Z,97798.38
2022-11-27T06:48:00.650Z,97806.34
2022-11-27T06:49:02.290Z,97805.00
2022-11-27T06:50:04.037Z,97802.06
2022-11-27T06:51:08.072Z,97804.47
2022-11-27T06:52:09.606Z,97810.84
2022-11-27T06:53:11.189Z,97806.34
2022-11-27T06:54:12.830Z,97806.31
2022-11-27T06:55:14.406Z,97811.34
2022-11-27T06:56:19.136Z,97803.34
2022-11-27T06:57:20.737Z,97805.47
2022-11-27T06:58:26.491Z,97812.88
2022-11-27T06:59:31.246Z,97805.19
2022-11-27T07:00:32.784Z,97807.53
2022-11-27T07:01:34.657Z,97810.72
2022-11-27T07:02:36.400Z,97809.13
2022-11-27T07:03:38.091Z,97811.28
2022-11-27T07:04:40.018Z,97809.13
2022-11-27T07:05:41.832Z,97810.16
2022-11-27T07:06:43.721Z,97804.84
2022-11-27T07:07:45.358Z,97807.50
2022-11-27T07:08:47.340Z,97815.50
2022-11-27T07:09:48.906Z,97813.38
2022-11-27T07:10:50.474Z,97813.34
2022-11-27T07:11:52.020Z,97802.94
2022-11-27T07:12:53.573Z,97806.16
2022-11-27T07:13:57.483Z,97807.97
2022-11-27T07:15:03.869Z,97810.63
2022-11-27T07:16:08.372Z,97809.78
2022-11-27T07:17:09.949Z,97809.56
2022-11-27T07:18:12.047Z,97804.81
2022-11-27T07:19:14.719Z,97809.59
2022-11-27T07:20:16.392Z,97805.84
2022-11-27T07:21:18.083Z,97802.38
2022-11-27T07:22:19.646Z,97801.56
2022-11-27T07:23:21.373Z,97797.84
2022-11-27T07:24:23.053Z,97802.59
2022-11-27T07:25:24.765Z,97806.88
2022-11-27T07:26:28.449Z,97803.78
2022-11-27T07:27:30.032Z,97806.78
2022-11-27T07:28:31.569Z,97802.19
2022-11-27T07:29:33.099Z,97800.09
2022-11-27T07:30:36.518Z,97804.59
2022-11-27T07:31:38.223Z,97801.13
2022-11-27T07:32:39.868Z,97803.78
2022-11-27T07:33:41.861Z,97796.84
2022-11-27T07:34:43.429Z,97797.38
2022-11-27T07:35:45.025Z,97792.59
2022-11-27T07:36:46.822Z,97788.88
2022-11-27T07:37:48.400Z,97796.81
2022-11-27T07:38:50.899Z,97796.25
2022-11-27T07:40:02.332Z,97796.25
2022-11-27T07:41:05.873Z,97792.03
2022-11-27T07:42:37.668Z,97796.00
2022-11-27T07:43:29.887Z,97795.63
2022-11-27T07:44:31.418Z,97792.94
2022-11-27T07:45:32.974Z,97791.84
2022-11-27T07:46:34.585Z,97788.56
2022-11-27T07:47:36.429Z,97793.75
2022-11-27T07:48:38.093Z,97795.94
2022-11-27T07:49:39.607Z,97793.53
2022-11-27T07:50:41.341Z,97791.69
2022-11-27T07:51:42.891Z,97791.22
2022-11-27T07:52:44.476Z,97794.97
2022-11-27T07:53:46.394Z,97789.91
2022-11-27T07:54:47.977Z,97791.25
2022-11-27T07:55:49.516Z,97788.03
2022-11-27T07:56:51.103Z,97790.44
2022-11-27T07:57:52.610Z,97782.16
2022-11-27T07:58:54.121Z,97782.69
2022-11-27T07:59:55.766Z,97783.00
2022-11-27T08:00:57.397Z,97776.38
2022-11-27T08:01:59.055Z,97782.22
2022-11-27T08:03:01.298Z,97779.00
2022-11-27T08:04:03.037Z,97784.28
2022-11-27T08:05:10.935Z,97784.25
2022-11-27T08:06:19.382Z,97778.34
2022-11-27T08:07:20.978Z,97780.44
2022-11-27T08:08:22.581Z,97787.28
2022-11-27T08:09:24.211Z,97778.69
2022-11-27T08:10:25.706Z,97780.81
2022-11-27T08:11:33.049Z,97780.25
2022-11-27T08:12:34.629Z,97776.03
2022-11-27T08:13:36.178Z,97781.84
2022-11-27T08:14:38.130Z,97774.38
2022-11-27T08:15:39.944Z,97778.13
2022-11-27T08:16:41.609Z,97774.38
2022-11-27T08:17:43.298Z,97776.72
2022-11-27T08:18:44.856Z,97777.50
2022-11-27T08:19:46.425Z,97770.00
2022-11-27T08:20:48.086Z,97766.78
2022-11-27T08:21:50.387Z,97773.66
2022-11-27T08:22:52.050Z,97769.41
2022-11-27T08:23:53.894Z,97774.16
2022-11-27T08:24:55.480Z,97770.19
2022-11-27T08:25:57.065Z,97775.72
2022-11-27T08:26:58.673Z,97777.81
2022-11-27T08:28:00.220Z,97775.09
2022-11-27T08:29:01.775Z,97773.97
2022-11-27T08:30:04.909Z,97778.16
2022-11-27T08:31:08.318Z,97765.94
2022-11-27T08:32:10.508Z,97770.66
2022-11-27T08:33:14.917Z,97768.47
2022-11-27T08:34:16.564Z,97770.84
2022-11-27T08:35:18.259Z,97772.16
2022-11-27T08:36:20.101Z,97770.56
2022-11-27T08:37:22.120Z,97777.44
2022-11-27T08:38:24.218Z,97768.06
2022-11-27T08:39:26.715Z,97772.91
2022-11-27T08:40:28.256Z,97767.00
2022-11-27T08:41:29.790Z,97768.03
2022-11-27T08:42:31.628Z,97770.63
2022-11-27T08:43:33.772Z,97772.50
2022-11-27T08:44:35.302Z,97771.72
2022-11-27T08:45:39.949Z,97769.28
2022-11-27T08:46:43.651Z,97774.63
2022-11-27T08:47:45.194Z,97765.09
2022-11-27T08:48:46.700Z,97769.72
2022-11-27T08:49:48.483Z,97772.19
2022-11-27T08:50:50.714Z,97775.84
2022-11-27T08:51:52.280Z,97775.03
2022-11-27T08:52:53.810Z,97773.88
2022-11-27T08:53:55.487Z,97769.00
2022-11-27T08:54:57.994Z,97770.00
2022-11-27T08:56:11.804Z,97771.00
2022-11-27T08:57:13.358Z,97776.22
2022-11-27T08:58:14.967Z,97775.13
2022-11-27T08:59:16.602Z,97771.31
2022-11-27T09:00:21.383Z,97769.50
2022-11-27T09:01:27.742Z,97767.44
2022-11-27T09:02:29.314Z,97771.31
2022-11-27T09:03:30.874Z,97770.19
2022-11-27T09:04:32.473Z,97770.78
2022-11-27T09:05:34.245Z,97768.38
2022-11-27T09:06:36.304Z,97761.69
2022-11-27T09:07:38.003Z,97763.81
2022-11-27T09:08:41.102Z,97763.84
2022-11-27T09:09:42.987Z,97766.47
2022-11-27T09:10:44.501Z,97759.22
2022-11-27T09:11:46.048Z,97764.75
2022-11-27T09:12:49.349Z,97757.03
2022-11-27T09:13:50.930Z,97756.75
2022-11-27T09:14:52.479Z,97752.00
2022-11-27T09:15:55.467Z,97750.13
2022-11-27T09:16:57.102Z,97749.47
2022-11-27T09:17:58.686Z,97749.22
2022-11-27T09:19:00.458Z,97744.25
2022-11-27T09:20:02.033Z,97745.47
2022-11-27T09:21:07.267Z,97742.53
2022-11-27T09:22:08.833Z,97743.56
2022-11-27T09:23:14.385Z,97740.16
2022-11-27T09:24:16.273Z,97728.47
2022-11-27T09:25:17.922Z,97736.97
2022-11-27T09:26:19.637Z,97733.22
2022-11-27T09:27:21.218Z,97730.56
2022-11-27T09:28:24.625Z,97732.66
2022-11-27T09:29:29.787Z,97733.13
2022-11-27T09:30:31.317Z,97732.78
2022-11-27T09:31:33.033Z,97738.91
2022-11-27T09:32:34.962Z,97735.63
2022-11-27T09:33:38.501Z,97724.97
2022-11-27T09:34:40.460Z,97734.53
2022-11-27T09:35:42.324Z,97737.22
2022-11-27T09:36:44.057Z,97730.75
2022-11-27T09:37:45.615Z,97727.44
2022-11-27T09:38:47.491Z,97729.25
2022-11-27T09:39:49.045Z,97723.59
2022-11-27T09:40:53.301Z,97726.69
2022-11-27T09:41:57.295Z,97724.25
2022-11-27T09:43:09.764Z,97725.84
2022-11-27T09:44:45.388Z,97719.97
2022-11-27T09:45:54.812Z,97716.63
2022-11-27T09:46:59.647Z,97719.06
2022-11-27T09:48:04.524Z,97720.44
2022-11-27T09:49:13.981Z,97711.91
2022-11-27T09:50:21.308Z,97709.78
2022-11-27T09:51:34.174Z,97704.41
2022-11-27T09:52:54.784Z,97707.28
2022-11-27T09:54:06.861Z,97697.84
2022-11-27T09:55:31.766Z,97703.50
2022-11-27T09:56:36.174Z,97703.50
2022-11-27T09:57:40.549Z,97702.81
2022-11-27T09:59:03.829Z,97696.81
2022-11-27T10:00:20.184Z,97695.38
2022-11-27T10:01:34.918Z,97702.13
2022-11-27T10:02:43.063Z,97692.91
2022-11-27T10:03:46.122Z,97692.34
2022-11-27T10:05:12.278Z,97697.56
2022-11-27T10:06:22.196Z,97689.50
2022-11-27T10:07:37.022Z,97685.53
2022-11-27T10:08:48.862Z,97687.94
2022-11-27T10:10:00.297Z,97682.78
2022-11-27T10:11:04.501Z,97687.75
2022-11-27T10:12:22.885Z,97685.72
2022-11-27T10:13:33.619Z,97685.91
2022-11-27T10:14:47.417Z,97682.53
2022-11-27T10:16:03.034Z,97685.38
2022-11-27T10:17:33.694Z,97686.16
2022-11-27T10:18:47.954Z,97685.69
2022-11-27T10:20:01.562Z,97684.25
2022-11-27T10:21:14.005Z,97680.06
2022-11-27T10:22:44.896Z,97680.44
2022-11-27T10:23:51.619Z,97678.06
2022-11-27T10:25:28.067Z,97679.56
2022-11-27T10:27:02.278Z,97668.78
2022-11-27T10:28:09.566Z,97680.91
2022-11-27T10:29:29.996Z,97672.13
2022-11-27T10:30:37.431Z,97664.13
2022-11-27T10:31:41.632Z,97664.66
2022-11-27T10:32:55.059Z,97663.63
2022-11-27T10:34:02.833Z,97663.78
2022-11-27T10:35:16.197Z,97662.84
2022-11-27T10:36:30.595Z,97664.88
2022-11-27T10:37:39.721Z,97663.72
2022-11-27T10:38:43.267Z,97664.88
2022-11-27T10:39:51.812Z,97664.88
2022-11-27T10:42:55.386Z,97659.16
2022-11-27T10:44:01.857Z,97653.09
2022-11-27T10:45:03.651Z,97661.69
2022-11-27T10:46:17.509Z,97652.13
2022-11-27T10:47:24.164Z,97647.50
2022-11-27T10:48:27.670Z,97654.03
2022-11-27T10:49:29.776Z,97648.53
2022-11-27T10:50:31.297Z,97645.75
2022-11-27T10:51:35.981Z,97640.41
2022-11-27T10:52:51.115Z,97643.19
2022-11-27T10:53:54.786Z,97636.56
2022-11-27T10:55:00.192Z,97638.94
2022-11-27T10:56:20.057Z,97630.69
2022-11-27T10:57:24.417Z,97628.84
2022-11-27T10:58:36.730Z,97628.16
2022-11-27T10:59:48.358Z,97623.13
2022-11-27T11:01:05.615Z,97623.03
2022-11-27T11:02:29.749Z,97619.13
2022-11-27T11:03:31.402Z,97620.56
2022-11-27T11:04:38.417Z,97621.56
2022-11-27T11:06:21.235Z,97614.50
2022-11-27T11:07:29.462Z,97619.13
2022-11-27T11:08:33.366Z,97613.00
2022-11-27T11:09:36.022Z,97607.00
2022-11-27T11:11:02.462Z,97612.19
2022-11-27T11:12:18.574Z,97607.84
2022-11-27T11:13:20.202Z,97601.84
2022-11-27T11:14:24.348Z,97602.56
2022-11-27T11:15:25.940Z,97600.00
2022-11-27T11:16:34.978Z,97593.72
2022-11-27T11:17:40.840Z,97588.00
2022-11-27T11:18:43.641Z,97588.91
2022-11-27T11:19:46.007Z,97596.50
2022-11-27T11:20:50.185Z,97588.38
2022-11-27T11:21:52.345Z,97585.94
2022-11-27T11:22:54.282Z,97588.59
2022-11-27T11:23:58.882Z,97591.19
2022-11-27T11:25:00.494Z,97588.50
2022-11-27T11:26:07.352Z,97587.47
2022-11-27T11:27:21.491Z,97588.84
2022-11-27T11:28:24.493Z,97581.44
2022-11-27T11:29:29.132Z,97581.38
2022-11-27T11:30:30.818Z,97581.16
2022-11-27T11:31:37.087Z,97579.88
2022-11-27T11:32:40.586Z,97570.34
2022-11-27T11:33:57.655Z,97570.91
2022-11-27T11:35:23.342Z,97561.66
2022-11-27T11:36:25.180Z,97560.44
2022-11-27T11:37:38.776Z,97563.81
2022-11-27T11:38:44.696Z,97563.44
2022-11-27T11:39:53.614Z,97559.00
2022-11-27T11:41:07.004Z,97559.09
2022-11-27T11:42:11.204Z,97556.13
2022-11-27T11:43:32.139Z,97556.13
2022-11-27T11:44:37.989Z,97547.63
2022-11-27T11:45:48.809Z,97548.41
2022-11-27T11:46:54.860Z,97549.50
2022-11-27T11:47:59.305Z,97549.91
2022-11-27T11:49:24.962Z,97548.66
2022-11-27T11:50:37.278Z,97547.47
2022-11-27T11:51:47.457Z,97544.69
2022-11-27T11:52:59.601Z,97548.66
2022-11-27T11:54:31.548Z,97544.88
2022-11-27T11:55:33.015Z,97540.81
2022-11-27T11:56:39.951Z,97542.09
2022-11-27T11:57:58.244Z,97537.91
2022-11-27T11:59:03.879Z,97541.75
2022-11-27T12:00:11.109Z,97539.16
2022-11-27T12:01:54.327Z,97540.16
2022-11-27T12:03:17.703Z,97532.81
2022-11-27T12:04:31.485Z,97538.28
2022-11-27T12:05:33.084Z,97536.34
2022-11-27T12:06:45.291Z,97533.38
2022-11-27T12:07:52.822Z,97533.25
2022-11-27T12:09:06.472Z,97535.91
2022-11-27T12:10:16.894Z,97525.88
2022-11-27T12:11:30.830Z,97521.13
2022-11-27T12:12:47.453Z,97519.69
2022-11-27T12:14:11.475Z,97519.22
2022-11-27T12:15:36.323Z,97515.34
2022-11-27T12:17:03.490Z,97508.91
2022-11-27T12:18:26.236Z,97506.56
2022-11-27T12:19:36.705Z,97501.09
2022-11-27T12:20:41.230Z,97495.28
2022-11-27T12:21:45.390Z,97500.50
2022-11-27T12:23:01.945Z,97501.63
2022-11-27T12:24:11.802Z,97498.44
2022-11-27T12:25:25.290Z,97492.63
2022-11-27T12:26:42.512Z,97495.50
2022-11-27T12:28:07.576Z,97492.28
2022-11-27T12:29:15.083Z,97491.53
2022-11-27T12:30:36.587Z,97498.94
2022-11-27T12:32:05.105Z,97497.97
2022-11-27T12:33:27.256Z,97502.81
2022-11-27T12:34:50.152Z,97504.19
2022-11-27T12:35:58.168Z,97497.88
2022-11-27T12:37:11.119Z,97495.47
2022-11-27T12:38:28.178Z,97495.00
2022-11-27T12:39:57.171Z,97492.91
2022-11-27T12:41:32.694Z,97493.88
2022-11-27T12:42:49.880Z,97495.69
2022-11-27T12:44:00.171Z,97496.47
2022-11-27T12:45:28.154Z,97502.97
2022-11-27T12:46:55.350Z,97500.78
2022-11-27T12:48:05.664Z,97494.75
2022-11-27T12:49:40.439Z,97504.22
2022-11-27T12:51:06.931Z,97501.19
2022-11-27T12:52:19.578Z,97497.69
2022-11-27T12:53:39.296Z,97495.50
2022-11-27T12:54:52.917Z,97486.63
2022-11-27T12:56:06.805Z,97491.44
2022-11-27T12:57:16.892Z,97497.69
2022-11-27T12:58:27.044Z,97494.44